首页
METAR-TAF:

METAR-TAF

机场 :

羅夫諾, 乌克兰

纬度: 50-35N, 经度: 026-08E, 海拔: 231米

当前天气观测

该预报发布于45分钟前的06:30 UTC
风速14节,风向东南,在之间变化
温度 21°C
湿度 73%
气压 1010 hPa
能见度10公里或以上
1500米以下无云,无积雨云

METAR: UKLR 200630Z 13007MPS 100V170 CAVOK 21/16 Q1010 NOSIG

时间: 10:15 (07:15 UTC)

预报

该预报发布于2小时和6分钟前的05:09 UTC
预报有效从20日的 06点(UTC)到 20日的 15点(UTC)
风速14节,风向东转东南,有时为23节阵风
能见度10公里或以上
多云层高于2000英尺
散云层高于2600英尺, 积雨云.
短暂存在
从 20日的 06点(UTC)到 20日的 09点(UTC)
风速17节,风向南转南东,有时为27节阵风
多云层高于1000英尺, 积雨云.
小阵雨
短暂存在
从 20日的 09点(UTC)到 20日的 15点(UTC)
风速19节,风向多变,有时为33节阵风
能見度: 1000
多云层高于300英尺
多云层高于1300英尺, 积雨云.
雷暴, 雨, 冰雹, 飑

TAF: UKLR 200509Z 2006/2015 12007G12MPS 9999 BKN020 SCT026CB TX25/2013Z TN19/2006Z TEMPO 2006/2009 16009G14MPS -SHRA BKN010CB TEMPO 2009/2015 VRB10G17MPS 1000 TSRAGR SQ BKN003 BKN013CB

超过4000个机场的气象观测和天气预报(METAR&TAF报告)。

可查询的气象台以黄色和红色小点在地图上表示。

将鼠标移到小点上方,可查看气象台名称。

然后点击查看天气观测和预报。

如需切换地图:点击带黑十字的绿色按钮放大地图;点击带横线的绿色按钮缩小地图;或者点击绿色箭头查看邻近地区的地图。


METAR-TAF: